sensor_id;sensor_type;location;lat;lon;timestamp;P1;durP1;ratioP1;P2;durP2;ratioP2
13388;SDS011;6764;53.250;10.410;2023-02-28T00:00:06;11.30;;;7.40;;
13388;SDS011;6764;53.250;10.410;2023-02-28T00:02:38;10.43;;;7.67;;
13388;SDS011;6764;53.250;10.410;2023-02-28T00:05:05;13.60;;;7.80;;
13388;SDS011;6764;53.250;10.410;2023-02-28T00:07:32;11.67;;;7.57;;
13388;SDS011;6764;53.250;10.410;2023-02-28T00:09:58;11.00;;;7.20;;
13388;SDS011;6764;53.250;10.410;2023-02-28T00:12:25;11.97;;;7.27;;
13388;SDS011;6764;53.250;10.410;2023-02-28T00:14:51;7.67;;;6.53;;
13388;SDS011;6764;53.250;10.410;2023-02-28T00:17:16;10.50;;;6.50;;
13388;SDS011;6764;53.250;10.410;2023-02-28T00:19:45;10.83;;;6.57;;
13388;SDS011;6764;53.250;10.410;2023-02-28T00:22:15;10.17;;;7.03;;
13388;SDS011;6764;53.250;10.410;2023-02-28T00:24:42;8.53;;;7.13;;
13388;SDS011;6764;53.250;10.410;2023-02-28T00:27:08;10.50;;;7.07;;
13388;SDS011;6764;53.250;10.410;2023-02-28T00:29:33;9.93;;;7.60;;
13388;SDS011;6764;53.250;10.410;2023-02-28T00:32:00;11.93;;;7.53;;
13388;SDS011;6764;53.250;10.410;2023-02-28T00:34:26;10.10;;;6.90;;
13388;SDS011;6764;53.250;10.410;2023-02-28T00:36:51;9.33;;;6.87;;
13388;SDS011;6764;53.250;10.410;2023-02-28T00:39:17;8.53;;;6.83;;
13388;SDS011;6764;53.250;10.410;2023-02-28T00:41:43;9.87;;;7.10;;
13388;SDS011;6764;53.250;10.410;2023-02-28T00:44:08;9.80;;;7.60;;
13388;SDS011;6764;53.250;10.410;2023-02-28T00:46:34;11.10;;;7.20;;
13388;SDS011;6764;53.250;10.410;2023-02-28T00:49:00;11.43;;;7.17;;
13388;SDS011;6764;53.250;10.410;2023-02-28T00:51:25;7.50;;;6.70;;
13388;SDS011;6764;53.250;10.410;2023-02-28T00:53:51;9.90;;;6.43;;
13388;SDS011;6764;53.250;10.410;2023-02-28T00:56:17;10.40;;;7.17;;
13388;SDS011;6764;53.250;10.410;2023-02-28T00:58:42;10.30;;;6.93;;
13388;SDS011;6764;53.250;10.410;2023-02-28T01:01:08;9.90;;;6.80;;
13388;SDS011;6764;53.250;10.410;2023-02-28T01:03:34;8.67;;;6.07;;
13388;SDS011;6764;53.250;10.410;2023-02-28T01:05:59;7.73;;;6.43;;
13388;SDS011;6764;53.250;10.410;2023-02-28T01:08:25;6.30;;;5.60;;
13388;SDS011;6764;53.250;10.410;2023-02-28T01:10:51;7.63;;;5.60;;
13388;SDS011;6764;53.250;10.410;2023-02-28T01:13:17;8.00;;;6.07;;
13388;SDS011;6764;53.250;10.410;2023-02-28T01:15:48;8.40;;;6.93;;
13388;SDS011;6764;53.250;10.410;2023-02-28T01:18:16;10.60;;;6.00;;
13388;SDS011;6764;53.250;10.410;2023-02-28T01:20:42;7.10;;;6.00;;
13388;SDS011;6764;53.250;10.410;2023-02-28T01:23:08;6.50;;;5.80;;
13388;SDS011;6764;53.250;10.410;2023-02-28T01:25:34;7.30;;;5.83;;
13388;SDS011;6764;53.250;10.410;2023-02-28T01:28:00;7.10;;;5.70;;
13388;SDS011;6764;53.250;10.410;2023-02-28T01:30:26;8.10;;;5.73;;
13388;SDS011;6764;53.250;10.410;2023-02-28T01:32:52;6.80;;;5.90;;
13388;SDS011;6764;53.250;10.410;2023-02-28T01:35:18;7.10;;;5.53;;
13388;SDS011;6764;53.250;10.410;2023-02-28T01:37:44;6.50;;;5.77;;
13388;SDS011;6764;53.250;10.410;2023-02-28T01:40:10;7.40;;;5.70;;
13388;SDS011;6764;53.250;10.410;2023-02-28T01:42:37;6.50;;;5.40;;
13388;SDS011;6764;53.250;10.410;2023-02-28T01:47:46;8.30;;;5.83;;
13388;SDS011;6764;53.250;10.410;2023-02-28T01:50:17;7.63;;;5.70;;
13388;SDS011;6764;53.250;10.410;2023-02-28T01:52:45;7.93;;;5.90;;
13388;SDS011;6764;53.250;10.410;2023-02-28T01:55:13;8.40;;;5.83;;
13388;SDS011;6764;53.250;10.410;2023-02-28T01:57:43;7.97;;;5.80;;
13388;SDS011;6764;53.250;10.410;2023-02-28T02:00:13;5.57;;;5.03;;
13388;SDS011;6764;53.250;10.410;2023-02-28T02:02:41;6.50;;;4.90;;
13388;SDS011;6764;53.250;10.410;2023-02-28T02:05:10;6.97;;;5.83;;
13388;SDS011;6764;53.250;10.410;2023-02-28T02:07:39;7.20;;;6.37;;
13388;SDS011;6764;53.250;10.410;2023-02-28T02:10:43;9.00;;;6.80;;
13388;SDS011;6764;53.250;10.410;2023-02-28T02:24:47;8.57;;;5.60;;
13388;SDS011;6764;53.250;10.410;2023-02-28T02:27:36;11.20;;;6.17;;
13388;SDS011;6764;53.250;10.410;2023-02-28T02:36:06;7.27;;;5.27;;
13388;SDS011;6764;53.250;10.410;2023-02-28T02:38:53;5.70;;;5.03;;
13388;SDS011;6764;53.250;10.410;2023-02-28T02:41:36;7.50;;;5.67;;
13388;SDS011;6764;53.250;10.410;2023-02-28T02:44:10;7.17;;;5.33;;
13388;SDS011;6764;53.250;10.410;2023-02-28T02:46:51;7.90;;;5.23;;
13388;SDS011;6764;53.250;10.410;2023-02-28T02:49:28;5.20;;;4.53;;
13388;SDS011;6764;53.250;10.410;2023-02-28T02:51:57;7.37;;;5.03;;
13388;SDS011;6764;53.250;10.410;2023-02-28T02:54:29;6.07;;;4.73;;
13388;SDS011;6764;53.250;10.410;2023-02-28T02:56:58;6.83;;;5.40;;
13388;SDS011;6764;53.250;10.410;2023-02-28T02:59:26;7.33;;;5.57;;
13388;SDS011;6764;53.250;10.410;2023-02-28T03:01:57;6.00;;;5.40;;
13388;SDS011;6764;53.250;10.410;2023-02-28T03:04:28;7.07;;;5.80;;
13388;SDS011;6764;53.250;10.410;2023-02-28T03:06:58;6.73;;;5.30;;
13388;SDS011;6764;53.250;10.410;2023-02-28T03:09:24;6.63;;;5.50;;
13388;SDS011;6764;53.250;10.410;2023-02-28T03:11:51;6.97;;;5.57;;
13388;SDS011;6764;53.250;10.410;2023-02-28T03:17:02;7.50;;;6.50;;
13388;SDS011;6764;53.250;10.410;2023-02-28T03:20:04;8.07;;;5.50;;
13388;SDS011;6764;53.250;10.410;2023-02-28T03:22:45;7.97;;;5.60;;
13388;SDS011;6764;53.250;10.410;2023-02-28T03:25:21;8.03;;;5.37;;
13388;SDS011;6764;53.250;10.410;2023-02-28T03:28:05;10.33;;;5.20;;
13388;SDS011;6764;53.250;10.410;2023-02-28T03:30:38;6.50;;;5.80;;
13388;SDS011;6764;53.250;10.410;2023-02-28T03:34:01;7.83;;;5.23;;
13388;SDS011;6764;53.250;10.410;2023-02-28T03:36:16;6.00;;;5.40;;
13388;SDS011;6764;53.250;10.410;2023-02-28T03:38:52;7.07;;;5.73;;
13388;SDS011;6764;53.250;10.410;2023-02-28T03:41:20;7.87;;;5.90;;
13388;SDS011;6764;53.250;10.410;2023-02-28T03:44:15;9.47;;;5.93;;
13388;SDS011;6764;53.250;10.410;2023-02-28T03:47:03;10.20;;;5.87;;
13388;SDS011;6764;53.250;10.410;2023-02-28T03:49:36;7.13;;;5.77;;
13388;SDS011;6764;53.250;10.410;2023-02-28T03:52:18;7.50;;;5.53;;
13388;SDS011;6764;53.250;10.410;2023-02-28T03:54:50;7.43;;;5.90;;
13388;SDS011;6764;53.250;10.410;2023-02-28T03:57:26;12.53;;;6.47;;
13388;SDS011;6764;53.250;10.410;2023-02-28T04:00:02;7.80;;;5.77;;
13388;SDS011;6764;53.250;10.410;2023-02-28T04:02:32;7.67;;;6.13;;
13388;SDS011;6764;53.250;10.410;2023-02-28T04:04:59;8.93;;;6.17;;
13388;SDS011;6764;53.250;10.410;2023-02-28T04:07:25;8.27;;;5.90;;
13388;SDS011;6764;53.250;10.410;2023-02-28T04:09:54;7.93;;;5.40;;
13388;SDS011;6764;53.250;10.410;2023-02-28T04:12:20;6.57;;;5.70;;
13388;SDS011;6764;53.250;10.410;2023-02-28T04:14:48;8.37;;;6.00;;
13388;SDS011;6764;53.250;10.410;2023-02-28T04:17:14;9.03;;;5.43;;
13388;SDS011;6764;53.250;10.410;2023-02-28T04:19:40;6.80;;;5.67;;
13388;SDS011;6764;53.250;10.410;2023-02-28T04:22:06;8.53;;;5.70;;
13388;SDS011;6764;53.250;10.410;2023-02-28T04:24:32;7.17;;;5.73;;
13388;SDS011;6764;53.250;10.410;2023-02-28T04:26:58;7.70;;;5.67;;
13388;SDS011;6764;53.250;10.410;2023-02-28T04:29:28;11.60;;;5.67;;
13388;SDS011;6764;53.250;10.410;2023-02-28T04:31:55;7.03;;;4.90;;
13388;SDS011;6764;53.250;10.410;2023-02-28T04:34:25;5.77;;;4.90;;
13388;SDS011;6764;53.250;10.410;2023-02-28T04:36:51;7.20;;;5.60;;
13388;SDS011;6764;53.250;10.410;2023-02-28T04:39:19;5.40;;;4.90;;
13388;SDS011;6764;53.250;10.410;2023-02-28T04:41:46;5.57;;;4.93;;
13388;SDS011;6764;53.250;10.410;2023-02-28T04:44:12;8.13;;;5.53;;
13388;SDS011;6764;53.250;10.410;2023-02-28T04:46:38;5.63;;;5.00;;
13388;SDS011;6764;53.250;10.410;2023-02-28T04:49:04;6.23;;;5.13;;
13388;SDS011;6764;53.250;10.410;2023-02-28T04:51:29;6.37;;;5.67;;
13388;SDS011;6764;53.250;10.410;2023-02-28T04:53:55;8.33;;;5.60;;
13388;SDS011;6764;53.250;10.410;2023-02-28T04:56:21;9.03;;;5.40;;
13388;SDS011;6764;53.250;10.410;2023-02-28T04:58:47;6.30;;;5.67;;
13388;SDS011;6764;53.250;10.410;2023-02-28T05:01:17;5.97;;;5.20;;
13388;SDS011;6764;53.250;10.410;2023-02-28T05:03:54;9.60;;;5.20;;
13388;SDS011;6764;53.250;10.410;2023-02-28T05:06:22;5.80;;;4.83;;
13388;SDS011;6764;53.250;10.410;2023-02-28T05:08:50;6.30;;;5.70;;
13388;SDS011;6764;53.250;10.410;2023-02-28T05:11:19;7.23;;;5.27;;
13388;SDS011;6764;53.250;10.410;2023-02-28T05:13:54;11.70;;;7.07;;
13388;SDS011;6764;53.250;10.410;2023-02-28T05:16:20;10.77;;;7.93;;
13388;SDS011;6764;53.250;10.410;2023-02-28T05:18:46;8.63;;;7.20;;
13388;SDS011;6764;53.250;10.410;2023-02-28T05:21:20;8.83;;;6.50;;
13388;SDS011;6764;53.250;10.410;2023-02-28T05:23:50;9.43;;;7.27;;
13388;SDS011;6764;53.250;10.410;2023-02-28T05:26:16;10.97;;;6.93;;
13388;SDS011;6764;53.250;10.410;2023-02-28T05:28:41;7.80;;;6.07;;
13388;SDS011;6764;53.250;10.410;2023-02-28T05:31:08;6.73;;;6.03;;
13388;SDS011;6764;53.250;10.410;2023-02-28T05:33:36;7.87;;;6.17;;
13388;SDS011;6764;53.250;10.410;2023-02-28T05:36:01;8.27;;;5.43;;
13388;SDS011;6764;53.250;10.410;2023-02-28T05:38:27;7.27;;;5.90;;
13388;SDS011;6764;53.250;10.410;2023-02-28T05:40:53;7.13;;;5.97;;
13388;SDS011;6764;53.250;10.410;2023-02-28T05:43:18;9.80;;;6.70;;
13388;SDS011;6764;53.250;10.410;2023-02-28T05:45:44;9.03;;;6.67;;
13388;SDS011;6764;53.250;10.410;2023-02-28T05:48:10;8.63;;;5.73;;
13388;SDS011;6764;53.250;10.410;2023-02-28T05:50:35;8.07;;;5.70;;
13388;SDS011;6764;53.250;10.410;2023-02-28T05:53:01;5.90;;;5.33;;
13388;SDS011;6764;53.250;10.410;2023-02-28T05:55:27;6.60;;;4.97;;
13388;SDS011;6764;53.250;10.410;2023-02-28T05:57:53;6.33;;;5.00;;
13388;SDS011;6764;53.250;10.410;2023-02-28T06:00:19;6.57;;;4.90;;
13388;SDS011;6764;53.250;10.410;2023-02-28T06:02:44;8.30;;;6.00;;
13388;SDS011;6764;53.250;10.410;2023-02-28T06:05:13;6.33;;;4.97;;
13388;SDS011;6764;53.250;10.410;2023-02-28T06:07:41;9.47;;;5.80;;
13388;SDS011;6764;53.250;10.410;2023-02-28T06:10:07;11.30;;;5.43;;
13388;SDS011;6764;53.250;10.410;2023-02-28T06:12:34;6.93;;;4.90;;
13388;SDS011;6764;53.250;10.410;2023-02-28T06:15:00;6.20;;;5.00;;
13388;SDS011;6764;53.250;10.410;2023-02-28T06:17:25;9.97;;;5.17;;
13388;SDS011;6764;53.250;10.410;2023-02-28T06:19:51;6.37;;;4.80;;
13388;SDS011;6764;53.250;10.410;2023-02-28T06:22:16;6.90;;;5.40;;
13388;SDS011;6764;53.250;10.410;2023-02-28T06:24:42;8.03;;;4.87;;
13388;SDS011;6764;53.250;10.410;2023-02-28T06:27:08;7.10;;;5.53;;
13388;SDS011;6764;53.250;10.410;2023-02-28T06:29:34;7.40;;;5.30;;
13388;SDS011;6764;53.250;10.410;2023-02-28T06:31:59;5.63;;;4.97;;
13388;SDS011;6764;53.250;10.410;2023-02-28T06:34:25;7.43;;;5.33;;
13388;SDS011;6764;53.250;10.410;2023-02-28T06:36:51;6.40;;;5.30;;
13388;SDS011;6764;53.250;10.410;2023-02-28T06:39:17;9.77;;;5.17;;
13388;SDS011;6764;53.250;10.410;2023-02-28T06:41:43;5.90;;;4.93;;
13388;SDS011;6764;53.250;10.410;2023-02-28T06:44:14;7.87;;;5.57;;
13388;SDS011;6764;53.250;10.410;2023-02-28T06:46:41;7.63;;;4.73;;
13388;SDS011;6764;53.250;10.410;2023-02-28T06:49:07;5.47;;;4.90;;
13388;SDS011;6764;53.250;10.410;2023-02-28T06:51:34;5.90;;;5.03;;
13388;SDS011;6764;53.250;10.410;2023-02-28T06:54:01;8.03;;;5.00;;
13388;SDS011;6764;53.250;10.410;2023-02-28T06:56:27;6.03;;;5.00;;
13388;SDS011;6764;53.250;10.410;2023-02-28T06:58:52;7.53;;;5.17;;
13388;SDS011;6764;53.250;10.410;2023-02-28T07:01:18;9.23;;;5.70;;
13388;SDS011;6764;53.250;10.410;2023-02-28T07:03:44;10.53;;;6.73;;
13388;SDS011;6764;53.250;10.410;2023-02-28T07:06:11;9.83;;;6.53;;
13388;SDS011;6764;53.250;10.410;2023-02-28T07:08:36;11.60;;;7.10;;
13388;SDS011;6764;53.250;10.410;2023-02-28T07:11:02;10.67;;;6.80;;
13388;SDS011;6764;53.250;10.410;2023-02-28T07:13:28;11.90;;;6.63;;
13388;SDS011;6764;53.250;10.410;2023-02-28T07:16:01;8.80;;;6.60;;
13388;SDS011;6764;53.250;10.410;2023-02-28T07:18:29;8.33;;;6.07;;
13388;SDS011;6764;53.250;10.410;2023-02-28T07:20:55;9.93;;;6.17;;
13388;SDS011;6764;53.250;10.410;2023-02-28T07:23:21;7.57;;;5.80;;
13388;SDS011;6764;53.250;10.410;2023-02-28T07:25:47;8.00;;;5.73;;
13388;SDS011;6764;53.250;10.410;2023-02-28T07:28:13;7.43;;;5.50;;
13388;SDS011;6764;53.250;10.410;2023-02-28T07:30:39;9.10;;;5.83;;
13388;SDS011;6764;53.250;10.410;2023-02-28T07:33:06;6.23;;;5.63;;
13388;SDS011;6764;53.250;10.410;2023-02-28T07:35:31;9.33;;;5.93;;
13388;SDS011;6764;53.250;10.410;2023-02-28T07:37:58;7.57;;;5.83;;
13388;SDS011;6764;53.250;10.410;2023-02-28T07:40:24;10.90;;;5.90;;
13388;SDS011;6764;53.250;10.410;2023-02-28T07:42:50;8.40;;;6.07;;
13388;SDS011;6764;53.250;10.410;2023-02-28T07:45:15;8.80;;;6.30;;
13388;SDS011;6764;53.250;10.410;2023-02-28T07:47:42;6.97;;;5.57;;
13388;SDS011;6764;53.250;10.410;2023-02-28T07:50:09;5.80;;;5.20;;
13388;SDS011;6764;53.250;10.410;2023-02-28T07:52:37;9.27;;;5.60;;
13388;SDS011;6764;53.250;10.410;2023-02-28T07:55:04;6.60;;;5.93;;
13388;SDS011;6764;53.250;10.410;2023-02-28T07:57:30;9.93;;;5.03;;
13388;SDS011;6764;53.250;10.410;2023-02-28T07:59:56;6.63;;;4.90;;
13388;SDS011;6764;53.250;10.410;2023-02-28T08:02:22;6.73;;;5.30;;
13388;SDS011;6764;53.250;10.410;2023-02-28T08:04:48;8.43;;;5.33;;
13388;SDS011;6764;53.250;10.410;2023-02-28T08:07:14;6.27;;;5.33;;
13388;SDS011;6764;53.250;10.410;2023-02-28T08:09:41;7.00;;;5.60;;
13388;SDS011;6764;53.250;10.410;2023-02-28T08:12:07;9.10;;;5.43;;
13388;SDS011;6764;53.250;10.410;2023-02-28T08:14:33;6.10;;;4.33;;
13388;SDS011;6764;53.250;10.410;2023-02-28T08:16:59;6.63;;;5.13;;
13388;SDS011;6764;53.250;10.410;2023-02-28T08:19:25;6.90;;;5.23;;
13388;SDS011;6764;53.250;10.410;2023-02-28T08:21:51;6.93;;;4.83;;
13388;SDS011;6764;53.250;10.410;2023-02-28T08:24:16;7.50;;;4.93;;
13388;SDS011;6764;53.250;10.410;2023-02-28T08:26:42;8.23;;;5.17;;
13388;SDS011;6764;53.250;10.410;2023-02-28T08:29:08;8.13;;;5.17;;
13388;SDS011;6764;53.250;10.410;2023-02-28T08:31:34;6.93;;;5.63;;
13388;SDS011;6764;53.250;10.410;2023-02-28T08:34:04;6.37;;;5.67;;
13388;SDS011;6764;53.250;10.410;2023-02-28T08:36:30;5.77;;;4.93;;
13388;SDS011;6764;53.250;10.410;2023-02-28T08:38:57;6.23;;;4.70;;
13388;SDS011;6764;53.250;10.410;2023-02-28T08:41:23;5.60;;;5.10;;
13388;SDS011;6764;53.250;10.410;2023-02-28T08:43:48;6.30;;;4.77;;
13388;SDS011;6764;53.250;10.410;2023-02-28T08:46:14;5.77;;;5.17;;
13388;SDS011;6764;53.250;10.410;2023-02-28T08:48:39;7.60;;;4.57;;
13388;SDS011;6764;53.250;10.410;2023-02-28T08:51:08;6.43;;;4.30;;
13388;SDS011;6764;53.250;10.410;2023-02-28T08:53:36;5.53;;;4.60;;
13388;SDS011;6764;53.250;10.410;2023-02-28T08:56:08;6.70;;;4.43;;
13388;SDS011;6764;53.250;10.410;2023-02-28T08:58:35;6.07;;;5.37;;
13388;SDS011;6764;53.250;10.410;2023-02-28T09:01:07;8.57;;;4.67;;
13388;SDS011;6764;53.250;10.410;2023-02-28T09:03:37;6.63;;;4.23;;
13388;SDS011;6764;53.250;10.410;2023-02-28T09:06:03;6.20;;;4.50;;
13388;SDS011;6764;53.250;10.410;2023-02-28T09:08:30;5.60;;;5.00;;
13388;SDS011;6764;53.250;10.410;2023-02-28T09:10:56;7.97;;;4.30;;
13388;SDS011;6764;53.250;10.410;2023-02-28T09:13:23;5.30;;;4.20;;
13388;SDS011;6764;53.250;10.410;2023-02-28T09:15:49;5.93;;;4.07;;
13388;SDS011;6764;53.250;10.410;2023-02-28T09:18:15;6.93;;;4.77;;
13388;SDS011;6764;53.250;10.410;2023-02-28T09:20:41;5.97;;;4.03;;
13388;SDS011;6764;53.250;10.410;2023-02-28T09:23:08;4.87;;;4.23;;
13388;SDS011;6764;53.250;10.410;2023-02-28T09:25:35;6.33;;;4.77;;
13388;SDS011;6764;53.250;10.410;2023-02-28T09:28:01;4.47;;;3.93;;
13388;SDS011;6764;53.250;10.410;2023-02-28T09:30:27;6.13;;;4.53;;
13388;SDS011;6764;53.250;10.410;2023-02-28T09:32:52;4.50;;;4.10;;
13388;SDS011;6764;53.250;10.410;2023-02-28T09:35:19;4.83;;;4.33;;
13388;SDS011;6764;53.250;10.410;2023-02-28T09:37:46;7.83;;;4.77;;
13388;SDS011;6764;53.250;10.410;2023-02-28T09:40:12;11.17;;;4.67;;
13388;SDS011;6764;53.250;10.410;2023-02-28T09:42:39;6.33;;;4.63;;
13388;SDS011;6764;53.250;10.410;2023-02-28T09:45:07;6.60;;;4.10;;
13388;SDS011;6764;53.250;10.410;2023-02-28T09:47:42;7.30;;;4.07;;
13388;SDS011;6764;53.250;10.410;2023-02-28T09:50:16;9.07;;;5.43;;
13388;SDS011;6764;53.250;10.410;2023-02-28T09:52:43;5.10;;;4.00;;
13388;SDS011;6764;53.250;10.410;2023-02-28T09:55:33;3.93;;;3.60;;
13388;SDS011;6764;53.250;10.410;2023-02-28T09:58:15;9.93;;;5.63;;
13388;SDS011;6764;53.250;10.410;2023-02-28T10:03:56;3.40;;;2.23;;
13388;SDS011;6764;53.250;10.410;2023-02-28T10:06:30;2.30;;;2.10;;
13388;SDS011;6764;53.250;10.410;2023-02-28T10:09:02;2.40;;;1.63;;
13388;SDS011;6764;53.250;10.410;2023-02-28T10:11:34;2.53;;;1.50;;
13388;SDS011;6764;53.250;10.410;2023-02-28T10:14:03;2.85;;;1.73;;
13388;SDS011;6764;53.250;10.410;2023-02-28T10:16:48;4.00;;;3.22;;
13388;SDS011;6764;53.250;10.410;2023-02-28T10:19:23;1.80;;;1.55;;
13388;SDS011;6764;53.250;10.410;2023-02-28T10:22:01;2.70;;;2.00;;
13388;SDS011;6764;53.250;10.410;2023-02-28T10:24:35;1.73;;;1.50;;
13388;SDS011;6764;53.250;10.410;2023-02-28T10:27:17;1.80;;;1.70;;
13388;SDS011;6764;53.250;10.410;2023-02-28T10:29:49;3.20;;;2.40;;
13388;SDS011;6764;53.250;10.410;2023-02-28T10:32:19;3.03;;;2.25;;
13388;SDS011;6764;53.250;10.410;2023-02-28T10:37:45;3.92;;;2.10;;
13388;SDS011;6764;53.250;10.410;2023-02-28T10:45:39;2.00;;;1.80;;
13388;SDS011;6764;53.250;10.410;2023-02-28T10:50:44;5.95;;;2.30;;
13388;SDS011;6764;53.250;10.410;2023-02-28T10:55:56;4.30;;;2.95;;
13388;SDS011;6764;53.250;10.410;2023-02-28T10:58:27;3.45;;;2.63;;
13388;SDS011;6764;53.250;10.410;2023-02-28T11:01:10;3.50;;;2.92;;
13388;SDS011;6764;53.250;10.410;2023-02-28T11:03:56;3.40;;;2.03;;
13388;SDS011;6764;53.250;10.410;2023-02-28T11:06:26;7.35;;;5.97;;
13388;SDS011;6764;53.250;10.410;2023-02-28T11:09:19;5.93;;;2.65;;
13388;SDS011;6764;53.250;10.410;2023-02-28T11:11:57;6.32;;;4.68;;
13388;SDS011;6764;53.250;10.410;2023-02-28T11:14:24;14.82;;;13.25;;
13388;SDS011;6764;53.250;10.410;2023-02-28T11:16:52;3.63;;;2.42;;
13388;SDS011;6764;53.250;10.410;2023-02-28T11:19:33;2.63;;;2.42;;
13388;SDS011;6764;53.250;10.410;2023-02-28T11:22:04;3.97;;;2.20;;
13388;SDS011;6764;53.250;10.410;2023-02-28T11:26:56;5.70;;;1.67;;
13388;SDS011;6764;53.250;10.410;2023-02-28T11:29:23;3.97;;;1.70;;
13388;SDS011;6764;53.250;10.410;2023-02-28T11:34:30;2.25;;;1.70;;
13388;SDS011;6764;53.250;10.410;2023-02-28T11:36:57;2.15;;;1.65;;
13388;SDS011;6764;53.250;10.410;2023-02-28T11:39:26;2.13;;;1.60;;
13388;SDS011;6764;53.250;10.410;2023-02-28T11:47:12;3.20;;;1.73;;
13388;SDS011;6764;53.250;10.410;2023-02-28T11:55:27;2.95;;;1.63;;
13388;SDS011;6764;53.250;10.410;2023-02-28T12:27:28;2.30;;;1.60;;
13388;SDS011;6764;53.250;10.410;2023-02-28T12:32:32;1.90;;;1.80;;
13388;SDS011;6764;53.250;10.410;2023-02-28T12:35:03;3.67;;;2.10;;
13388;SDS011;6764;53.250;10.410;2023-02-28T12:43:11;2.20;;;2.00;;
13388;SDS011;6764;53.250;10.410;2023-02-28T12:45:46;2.33;;;2.00;;
13388;SDS011;6764;53.250;10.410;2023-02-28T12:51:13;3.10;;;2.10;;
13388;SDS011;6764;53.250;10.410;2023-02-28T12:59:48;2.20;;;2.10;;
13388;SDS011;6764;53.250;10.410;2023-02-28T13:05:29;4.17;;;2.00;;
13388;SDS011;6764;53.250;10.410;2023-02-28T13:10:52;2.20;;;2.00;;
13388;SDS011;6764;53.250;10.410;2023-02-28T13:13:22;2.20;;;2.00;;
13388;SDS011;6764;53.250;10.410;2023-02-28T13:16:01;4.43;;;2.90;;
13388;SDS011;6764;53.250;10.410;2023-02-28T13:18:31;3.50;;;2.77;;
13388;SDS011;6764;53.250;10.410;2023-02-28T13:20:57;5.67;;;2.20;;
13388;SDS011;6764;53.250;10.410;2023-02-28T13:23:37;3.80;;;2.57;;
13388;SDS011;6764;53.250;10.410;2023-02-28T13:26:11;3.37;;;2.60;;
13388;SDS011;6764;53.250;10.410;2023-02-28T13:34:30;2.63;;;2.00;;
13388;SDS011;6764;53.250;10.410;2023-02-28T13:37:43;14.10;;;11.53;;
13388;SDS011;6764;53.250;10.410;2023-02-28T13:39:55;4.90;;;3.67;;
13388;SDS011;6764;53.250;10.410;2023-02-28T13:47:31;3.87;;;2.93;;
13388;SDS011;6764;53.250;10.410;2023-02-28T13:52:54;3.27;;;2.50;;
13388;SDS011;6764;53.250;10.410;2023-02-28T13:55:27;2.97;;;2.67;;
13388;SDS011;6764;53.250;10.410;2023-02-28T14:06:33;3.80;;;2.40;;
13388;SDS011;6764;53.250;10.410;2023-02-28T14:11:37;2.07;;;1.87;;
13388;SDS011;6764;53.250;10.410;2023-02-28T14:14:05;3.20;;;2.10;;
13388;SDS011;6764;53.250;10.410;2023-02-28T14:16:37;5.40;;;2.70;;
13388;SDS011;6764;53.250;10.410;2023-02-28T14:21:35;3.13;;;2.17;;
13388;SDS011;6764;53.250;10.410;2023-02-28T14:26:44;3.13;;;2.27;;
13388;SDS011;6764;53.250;10.410;2023-02-28T14:29:34;3.33;;;2.00;;
13388;SDS011;6764;53.250;10.410;2023-02-28T14:32:13;4.00;;;2.43;;
13388;SDS011;6764;53.250;10.410;2023-02-28T14:35:03;2.30;;;2.10;;
13388;SDS011;6764;53.250;10.410;2023-02-28T14:37:33;2.93;;;2.17;;
13388;SDS011;6764;53.250;10.410;2023-02-28T14:40:02;2.77;;;2.13;;
13388;SDS011;6764;53.250;10.410;2023-02-28T14:42:33;2.63;;;2.10;;
13388;SDS011;6764;53.250;10.410;2023-02-28T14:45:01;3.43;;;1.70;;
13388;SDS011;6764;53.250;10.410;2023-02-28T14:47:28;1.93;;;1.80;;
13388;SDS011;6764;53.250;10.410;2023-02-28T14:49:57;3.53;;;2.30;;
13388;SDS011;6764;53.250;10.410;2023-02-28T14:52:25;1.97;;;1.87;;
13388;SDS011;6764;53.250;10.410;2023-02-28T14:55:00;2.50;;;1.93;;
13388;SDS011;6764;53.250;10.410;2023-02-28T14:57:30;2.43;;;1.57;;
13388;SDS011;6764;53.250;10.410;2023-02-28T15:00:12;2.03;;;1.90;;
13388;SDS011;6764;53.250;10.410;2023-02-28T15:02:42;2.20;;;2.00;;
13388;SDS011;6764;53.250;10.410;2023-02-28T15:07:46;5.30;;;3.47;;
13388;SDS011;6764;53.250;10.410;2023-02-28T15:13:04;3.10;;;2.47;;
13388;SDS011;6764;53.250;10.410;2023-02-28T15:15:40;3.07;;;2.13;;
13388;SDS011;6764;53.250;10.410;2023-02-28T15:18:21;2.07;;;1.90;;
13388;SDS011;6764;53.250;10.410;2023-02-28T15:20:48;4.13;;;2.20;;
13388;SDS011;6764;53.250;10.410;2023-02-28T15:23:15;3.77;;;3.07;;
13388;SDS011;6764;53.250;10.410;2023-02-28T15:25:41;2.33;;;1.90;;
13388;SDS011;6764;53.250;10.410;2023-02-28T15:28:15;2.53;;;2.17;;
13388;SDS011;6764;53.250;10.410;2023-02-28T15:30:50;4.90;;;1.90;;
13388;SDS011;6764;53.250;10.410;2023-02-28T15:33:23;2.83;;;2.00;;
13388;SDS011;6764;53.250;10.410;2023-02-28T15:36:06;2.93;;;2.17;;
13388;SDS011;6764;53.250;10.410;2023-02-28T15:38:39;2.30;;;2.10;;
13388;SDS011;6764;53.250;10.410;2023-02-28T15:41:20;2.23;;;1.97;;
13388;SDS011;6764;53.250;10.410;2023-02-28T15:46:59;2.33;;;2.03;;
13388;SDS011;6764;53.250;10.410;2023-02-28T15:49:33;4.73;;;1.80;;
13388;SDS011;6764;53.250;10.410;2023-02-28T15:52:05;4.23;;;2.70;;
13388;SDS011;6764;53.250;10.410;2023-02-28T15:54:34;3.40;;;2.10;;
13388;SDS011;6764;53.250;10.410;2023-02-28T15:57:04;3.23;;;2.50;;
13388;SDS011;6764;53.250;10.410;2023-02-28T15:59:33;3.57;;;2.13;;
13388;SDS011;6764;53.250;10.410;2023-02-28T16:04:35;3.00;;;1.83;;
13388;SDS011;6764;53.250;10.410;2023-02-28T16:07:05;3.20;;;2.37;;
13388;SDS011;6764;53.250;10.410;2023-02-28T16:09:37;2.50;;;2.30;;
13388;SDS011;6764;53.250;10.410;2023-02-28T16:12:03;3.80;;;2.30;;
13388;SDS011;6764;53.250;10.410;2023-02-28T16:14:30;2.63;;;2.10;;
13388;SDS011;6764;53.250;10.410;2023-02-28T16:16:57;3.33;;;2.20;;
13388;SDS011;6764;53.250;10.410;2023-02-28T16:19:28;5.17;;;2.37;;
13388;SDS011;6764;53.250;10.410;2023-02-28T16:21:54;2.90;;;2.20;;
13388;SDS011;6764;53.250;10.410;2023-02-28T16:24:20;3.70;;;2.30;;
13388;SDS011;6764;53.250;10.410;2023-02-28T16:26:46;4.33;;;2.00;;
13388;SDS011;6764;53.250;10.410;2023-02-28T16:29:13;3.90;;;2.60;;
13388;SDS011;6764;53.250;10.410;2023-02-28T16:31:47;2.83;;;2.53;;
13388;SDS011;6764;53.250;10.410;2023-02-28T16:34:13;4.27;;;3.67;;
13388;SDS011;6764;53.250;10.410;2023-02-28T16:36:39;2.90;;;2.30;;
13388;SDS011;6764;53.250;10.410;2023-02-28T16:39:05;3.07;;;2.20;;
13388;SDS011;6764;53.250;10.410;2023-02-28T16:41:30;3.60;;;3.23;;
13388;SDS011;6764;53.250;10.410;2023-02-28T16:43:56;2.43;;;2.13;;
13388;SDS011;6764;53.250;10.410;2023-02-28T16:46:25;3.23;;;2.43;;
13388;SDS011;6764;53.250;10.410;2023-02-28T16:48:55;2.60;;;2.40;;
13388;SDS011;6764;53.250;10.410;2023-02-28T16:51:21;3.37;;;2.60;;
13388;SDS011;6764;53.250;10.410;2023-02-28T16:53:46;4.00;;;3.13;;
13388;SDS011;6764;53.250;10.410;2023-02-28T16:56:16;4.30;;;2.40;;
13388;SDS011;6764;53.250;10.410;2023-02-28T16:58:44;2.40;;;2.20;;
13388;SDS011;6764;53.250;10.410;2023-02-28T17:01:10;4.33;;;2.40;;
13388;SDS011;6764;53.250;10.410;2023-02-28T17:03:36;2.83;;;2.50;;
13388;SDS011;6764;53.250;10.410;2023-02-28T17:06:02;2.77;;;2.50;;
13388;SDS011;6764;53.250;10.410;2023-02-28T17:08:29;3.73;;;2.67;;
13388;SDS011;6764;53.250;10.410;2023-02-28T17:10:56;3.07;;;2.77;;
13388;SDS011;6764;53.250;10.410;2023-02-28T17:13:23;2.80;;;2.50;;
13388;SDS011;6764;53.250;10.410;2023-02-28T17:15:49;4.17;;;3.57;;
13388;SDS011;6764;53.250;10.410;2023-02-28T17:18:15;4.10;;;3.10;;
13388;SDS011;6764;53.250;10.410;2023-02-28T17:20:44;5.17;;;3.63;;
13388;SDS011;6764;53.250;10.410;2023-02-28T17:23:10;5.57;;;4.47;;
13388;SDS011;6764;53.250;10.410;2023-02-28T17:25:36;6.53;;;4.00;;
13388;SDS011;6764;53.250;10.410;2023-02-28T17:28:01;5.17;;;3.67;;